sensor_id;sensor_type;location;lat;lon;timestamp;pressure;altitude;pressure_sealevel;temperature;humidity
57904;BME280;43720;47.462;19.030;2024-03-07T04:56:08;100338.87;;;7.29;94.62
57904;BME280;43720;47.462;19.030;2024-03-07T04:59:12;100342.94;;;7.20;95.98
57904;BME280;43720;47.462;19.030;2024-03-07T05:02:14;100346.25;;;7.14;97.41
57904;BME280;43720;47.462;19.030;2024-03-07T05:05:16;100346.22;;;7.13;100.00
57904;BME280;43720;47.462;19.030;2024-03-07T05:08:26;100350.38;;;7.06;98.87
57904;BME280;43720;47.462;19.030;2024-03-07T05:11:31;100344.44;;;7.11;97.51
57904;BME280;43720;47.462;19.030;2024-03-07T05:14:34;100352.97;;;7.06;99.37
57904;BME280;43720;47.462;19.030;2024-03-07T05:17:36;100352.66;;;6.95;100.00
57904;BME280;43720;47.462;19.030;2024-03-07T05:20:41;100345.91;;;7.02;100.00
57904;BME280;43720;47.462;19.030;2024-03-07T05:23:44;100349.31;;;6.99;100.00
57904;BME280;43720;47.462;19.030;2024-03-07T05:26:46;100354.56;;;7.01;99.84
57904;BME280;43720;47.462;19.030;2024-03-07T05:29:49;100354.75;;;7.08;96.29
57904;BME280;43720;47.462;19.030;2024-03-07T05:32:51;100356.91;;;7.23;98.89
57904;BME280;43720;47.462;19.030;2024-03-07T05:35:54;100361.41;;;7.29;94.88
57904;BME280;43720;47.462;19.030;2024-03-07T05:39:05;100358.94;;;7.35;92.33
57904;BME280;43720;47.462;19.030;2024-03-07T05:42:12;100359.16;;;7.43;94.60
57904;BME280;43720;47.462;19.030;2024-03-07T05:45:16;100361.00;;;7.47;93.94
57904;BME280;43720;47.462;19.030;2024-03-07T05:48:20;100363.13;;;7.62;92.17
57904;BME280;43720;47.462;19.030;2024-03-07T05:51:22;100365.25;;;7.76;92.57
57904;BME280;43720;47.462;19.030;2024-03-07T05:54:27;100369.69;;;7.80;89.53
57904;BME280;43720;47.462;19.030;2024-03-07T05:57:31;100380.47;;;7.94;88.25
57904;BME280;43720;47.462;19.030;2024-03-07T06:00:34;100377.09;;;7.98;87.72
57904;BME280;43720;47.462;19.030;2024-03-07T06:03:37;100376.44;;;8.08;87.21
57904;BME280;43720;47.462;19.030;2024-03-07T06:06:39;100373.34;;;8.23;87.51
57904;BME280;43720;47.462;19.030;2024-03-07T06:09:43;100382.87;;;8.23;86.38
57904;BME280;43720;47.462;19.030;2024-03-07T06:12:45;100382.00;;;8.22;84.69
57904;BME280;43720;47.462;19.030;2024-03-07T06:15:51;100380.47;;;8.32;84.58
57904;BME280;43720;47.462;19.030;2024-03-07T06:18:53;100382.47;;;8.41;84.39
57904;BME280;43720;47.462;19.030;2024-03-07T06:21:56;100382.44;;;8.39;86.19
57904;BME280;43720;47.462;19.030;2024-03-07T06:24:58;100383.84;;;8.26;83.36
57904;BME280;43720;47.462;19.030;2024-03-07T06:28:06;100385.91;;;8.40;83.56
57904;BME280;43720;47.462;19.030;2024-03-07T06:31:11;100393.97;;;8.49;83.91
57904;BME280;43720;47.462;19.030;2024-03-07T06:34:14;100391.44;;;8.52;85.41
57904;BME280;43720;47.462;19.030;2024-03-07T06:37:16;100393.41;;;8.27;80.85
57904;BME280;43720;47.462;19.030;2024-03-07T06:40:21;100396.94;;;8.29;80.63
57904;BME280;43720;47.462;19.030;2024-03-07T06:43:24;100394.25;;;8.25;79.79
57904;BME280;43720;47.462;19.030;2024-03-07T06:46:27;100402.19;;;8.31;78.60
57904;BME280;43720;47.462;19.030;2024-03-07T06:49:30;100395.41;;;8.03;78.30
57904;BME280;43720;47.462;19.030;2024-03-07T06:52:32;100405.97;;;8.09;79.57
57904;BME280;43720;47.462;19.030;2024-03-07T06:55:35;100404.66;;;7.90;78.85
57904;BME280;43720;47.462;19.030;2024-03-07T06:58:37;100409.87;;;7.92;79.32
57904;BME280;43720;47.462;19.030;2024-03-07T07:01:42;100407.56;;;8.02;80.08
57904;BME280;43720;47.462;19.030;2024-03-07T07:04:45;100413.03;;;8.13;79.62
57904;BME280;43720;47.462;19.030;2024-03-07T07:07:52;100408.34;;;8.00;79.57
57904;BME280;43720;47.462;19.030;2024-03-07T07:10:55;100415.25;;;7.98;79.61
57904;BME280;43720;47.462;19.030;2024-03-07T07:13:58;100412.91;;;8.08;79.03
57904;BME280;43720;47.462;19.030;2024-03-07T07:17:00;100417.16;;;8.05;79.47
57904;BME280;43720;47.462;19.030;2024-03-07T07:20:04;100416.47;;;8.12;79.86
57904;BME280;43720;47.462;19.030;2024-03-07T07:23:12;100418.19;;;8.12;80.35
57904;BME280;43720;47.462;19.030;2024-03-07T07:26:15;100417.69;;;8.26;78.99
57904;BME280;43720;47.462;19.030;2024-03-07T07:29:17;100420.31;;;8.26;78.97
57904;BME280;43720;47.462;19.030;2024-03-07T07:32:20;100432.16;;;8.15;79.33
57904;BME280;43720;47.462;19.030;2024-03-07T07:35:23;100421.94;;;8.23;79.50
57904;BME280;43720;47.462;19.030;2024-03-07T07:38:26;100421.66;;;8.45;79.02
57904;BME280;43720;47.462;19.030;2024-03-07T07:41:29;100424.75;;;8.30;77.63
57904;BME280;43720;47.462;19.030;2024-03-07T07:44:33;100436.78;;;7.92;77.83
57904;BME280;43720;47.462;19.030;2024-03-07T07:47:43;100433.03;;;7.81;79.14
57904;BME280;43720;47.462;19.030;2024-03-07T07:50:49;100429.66;;;7.85;78.79
57904;BME280;43720;47.462;19.030;2024-03-07T07:53:53;100428.97;;;7.91;79.63
57904;BME280;43720;47.462;19.030;2024-03-07T07:56:59;100431.38;;;7.84;79.52
57904;BME280;43720;47.462;19.030;2024-03-07T08:00:01;100431.69;;;7.97;79.11
57904;BME280;43720;47.462;19.030;2024-03-07T08:03:13;100438.53;;;7.92;78.40
57904;BME280;43720;47.462;19.030;2024-03-07T08:06:18;100443.63;;;7.89;78.75
57904;BME280;43720;47.462;19.030;2024-03-07T08:09:21;100446.97;;;7.83;79.34
57904;BME280;43720;47.462;19.030;2024-03-07T08:12:23;100441.00;;;7.87;79.04
57904;BME280;43720;47.462;19.030;2024-03-07T08:15:27;100445.44;;;7.91;79.54
57904;BME280;43720;47.462;19.030;2024-03-07T08:18:32;100444.28;;;8.13;78.73
57904;BME280;43720;47.462;19.030;2024-03-07T08:21:34;100447.72;;;8.12;77.51
57904;BME280;43720;47.462;19.030;2024-03-07T08:24:37;100460.31;;;8.30;79.28
57904;BME280;43720;47.462;19.030;2024-03-07T08:27:41;100450.22;;;8.07;78.26
57904;BME280;43720;47.462;19.030;2024-03-07T08:30:59;100456.75;;;8.26;78.85
57904;BME280;43720;47.462;19.030;2024-03-07T08:34:02;100458.56;;;8.64;78.66
57904;BME280;43720;47.462;19.030;2024-03-07T08:37:04;100458.25;;;8.51;76.32
57904;BME280;43720;47.462;19.030;2024-03-07T08:40:08;100466.72;;;8.41;76.97
57904;BME280;43720;47.462;19.030;2024-03-07T08:43:12;100465.62;;;8.33;77.40
57904;BME280;43720;47.462;19.030;2024-03-07T08:46:14;100465.38;;;8.24;76.47
57904;BME280;43720;47.462;19.030;2024-03-07T08:49:16;100471.91;;;8.08;76.88
57904;BME280;43720;47.462;19.030;2024-03-07T08:52:19;100471.31;;;8.18;77.53
57904;BME280;43720;47.462;19.030;2024-03-07T08:55:25;100474.41;;;8.37;78.60
57904;BME280;43720;47.462;19.030;2024-03-07T08:58:28;100470.19;;;8.42;77.26
57904;BME280;43720;47.462;19.030;2024-03-07T09:01:31;100470.00;;;8.36;75.98
57904;BME280;43720;47.462;19.030;2024-03-07T09:04:33;100472.09;;;8.14;77.78
57904;BME280;43720;47.462;19.030;2024-03-07T09:07:35;100473.28;;;8.28;75.95
57904;BME280;43720;47.462;19.030;2024-03-07T09:10:38;100478.88;;;8.41;76.88
57904;BME280;43720;47.462;19.030;2024-03-07T09:13:43;100471.25;;;8.50;74.93
57904;BME280;43720;47.462;19.030;2024-03-07T09:16:45;100483.31;;;8.45;74.54
57904;BME280;43720;47.462;19.030;2024-03-07T09:19:50;100487.09;;;8.59;74.13
57904;BME280;43720;47.462;19.030;2024-03-07T09:22:53;100484.00;;;8.38;74.65
57904;BME280;43720;47.462;19.030;2024-03-07T09:25:57;100483.78;;;8.30;74.39
57904;BME280;43720;47.462;19.030;2024-03-07T09:29:01;100494.87;;;8.23;74.99
57904;BME280;43720;47.462;19.030;2024-03-07T09:32:07;100483.97;;;8.04;77.30
57904;BME280;43720;47.462;19.030;2024-03-07T09:35:11;100490.31;;;8.14;78.69
57904;BME280;43720;47.462;19.030;2024-03-07T09:38:17;100498.41;;;8.25;78.45
57904;BME280;43720;47.462;19.030;2024-03-07T09:41:19;100491.50;;;8.60;79.60
57904;BME280;43720;47.462;19.030;2024-03-07T09:44:23;100497.59;;;8.61;80.01
57904;BME280;43720;47.462;19.030;2024-03-07T09:47:29;100492.56;;;8.68;78.77
57904;BME280;43720;47.462;19.030;2024-03-07T09:50:32;100495.63;;;8.88;78.07
57904;BME280;43720;47.462;19.030;2024-03-07T09:53:37;100498.84;;;8.76;74.29
57904;BME280;43720;47.462;19.030;2024-03-07T09:56:39;100500.88;;;8.90;74.04
57904;BME280;43720;47.462;19.030;2024-03-07T09:59:45;100498.09;;;8.82;73.32
57904;BME280;43720;47.462;19.030;2024-03-07T10:02:53;100499.00;;;8.84;73.34
57904;BME280;43720;47.462;19.030;2024-03-07T10:05:56;100493.22;;;8.97;74.71
57904;BME280;43720;47.462;19.030;2024-03-07T10:08:59;100491.31;;;8.90;73.17
57904;BME280;43720;47.462;19.030;2024-03-07T10:12:06;100496.03;;;8.69;73.67
57904;BME280;43720;47.462;19.030;2024-03-07T10:15:18;100495.41;;;8.43;74.41
57904;BME280;43720;47.462;19.030;2024-03-07T10:18:21;100494.53;;;8.42;75.50
57904;BME280;43720;47.462;19.030;2024-03-07T10:21:25;100498.97;;;8.46;74.89
57904;BME280;43720;47.462;19.030;2024-03-07T10:24:28;100505.37;;;8.26;75.46
57904;BME280;43720;47.462;19.030;2024-03-07T10:27:31;100508.84;;;8.26;75.62
57904;BME280;43720;47.462;19.030;2024-03-07T10:30:40;100507.75;;;8.50;75.80
57904;BME280;43720;47.462;19.030;2024-03-07T10:33:44;100510.44;;;8.54;75.48
57904;BME280;43720;47.462;19.030;2024-03-07T10:36:48;100511.13;;;8.46;74.87
57904;BME280;43720;47.462;19.030;2024-03-07T10:39:51;100512.09;;;8.51;76.49
57904;BME280;43720;47.462;19.030;2024-03-07T10:42:58;100514.38;;;8.72;76.31
57904;BME280;43720;47.462;19.030;2024-03-07T10:46:05;100516.38;;;8.84;74.95
57904;BME280;43720;47.462;19.030;2024-03-07T10:49:14;100518.72;;;8.71;74.21
57904;BME280;43720;47.462;19.030;2024-03-07T10:52:28;100518.16;;;8.50;74.73
57904;BME280;43720;47.462;19.030;2024-03-07T10:59:18;100517.47;;;8.24;75.42
57904;BME280;43720;47.462;19.030;2024-03-07T11:02:43;100517.31;;;8.51;75.72
57904;BME280;43720;47.462;19.030;2024-03-07T11:05:48;100525.56;;;8.68;75.34
57904;BME280;43720;47.462;19.030;2024-03-07T11:08:51;100522.31;;;8.42;75.15
57904;BME280;43720;47.462;19.030;2024-03-07T11:11:56;100518.00;;;8.44;75.32
57904;BME280;43720;47.462;19.030;2024-03-07T11:15:01;100517.59;;;8.62;75.16
57904;BME280;43720;47.462;19.030;2024-03-07T11:18:08;100518.06;;;8.81;74.07
57904;BME280;43720;47.462;19.030;2024-03-07T11:21:41;100514.59;;;8.46;74.47
57904;BME280;43720;47.462;19.030;2024-03-07T11:25:00;100520.78;;;8.50;75.09
57904;BME280;43720;47.462;19.030;2024-03-07T11:28:03;100516.22;;;8.41;75.68
57904;BME280;43720;47.462;19.030;2024-03-07T11:31:25;100515.63;;;8.53;75.46
57904;BME280;43720;47.462;19.030;2024-03-07T11:34:29;100509.84;;;8.65;75.55
57904;BME280;43720;47.462;19.030;2024-03-07T11:45:32;100511.53;;;8.63;74.90
57904;BME280;43720;47.462;19.030;2024-03-07T11:48:47;100511.37;;;8.56;74.79
57904;BME280;43720;47.462;19.030;2024-03-07T11:51:50;100509.56;;;8.52;75.13
57904;BME280;43720;47.462;19.030;2024-03-07T11:54:54;100510.63;;;8.61;75.40
57904;BME280;43720;47.462;19.030;2024-03-07T11:58:09;100502.41;;;8.80;74.88
57904;BME280;43720;47.462;19.030;2024-03-07T12:01:11;100497.22;;;8.81;75.03
57904;BME280;43720;47.462;19.030;2024-03-07T12:04:16;100499.53;;;9.07;74.67
57904;BME280;43720;47.462;19.030;2024-03-07T12:07:19;100498.94;;;9.19;73.27
57904;BME280;43720;47.462;19.030;2024-03-07T12:10:25;100502.06;;;9.04;73.58
57904;BME280;43720;47.462;19.030;2024-03-07T12:13:27;100494.06;;;9.36;74.09
57904;BME280;43720;47.462;19.030;2024-03-07T12:16:30;100504.25;;;9.64;74.26
57904;BME280;43720;47.462;19.030;2024-03-07T12:19:33;100492.22;;;9.72;72.21
57904;BME280;43720;47.462;19.030;2024-03-07T12:22:37;100494.72;;;9.68;72.46
57904;BME280;43720;47.462;19.030;2024-03-07T12:25:39;100495.88;;;9.40;71.92
57904;BME280;43720;47.462;19.030;2024-03-07T12:28:42;100501.44;;;9.14;72.61
57904;BME280;43720;47.462;19.030;2024-03-07T12:31:48;100504.41;;;8.92;73.09
57904;BME280;43720;47.462;19.030;2024-03-07T12:34:51;100499.88;;;8.83;73.88
57904;BME280;43720;47.462;19.030;2024-03-07T12:37:55;100505.09;;;8.83;74.34
57904;BME280;43720;47.462;19.030;2024-03-07T12:41:06;100505.13;;;8.86;74.25
57904;BME280;43720;47.462;19.030;2024-03-07T12:44:20;100505.19;;;8.88;74.37
57904;BME280;43720;47.462;19.030;2024-03-07T12:47:23;100504.16;;;8.82;74.36
57904;BME280;43720;47.462;19.030;2024-03-07T12:50:27;100506.09;;;8.90;74.35
57904;BME280;43720;47.462;19.030;2024-03-07T12:53:30;100503.75;;;8.64;75.08
57904;BME280;43720;47.462;19.030;2024-03-07T12:56:33;100505.34;;;8.59;75.44
57904;BME280;43720;47.462;19.030;2024-03-07T12:59:40;100506.69;;;8.78;75.81
57904;BME280;43720;47.462;19.030;2024-03-07T13:02:47;100511.22;;;8.87;75.66
57904;BME280;43720;47.462;19.030;2024-03-07T13:05:49;100503.81;;;8.67;75.69
57904;BME280;43720;47.462;19.030;2024-03-07T13:08:52;100509.19;;;8.73;76.88
57904;BME280;43720;47.462;19.030;2024-03-07T13:11:54;100516.09;;;8.71;77.07
57904;BME280;43720;47.462;19.030;2024-03-07T13:14:57;100513.22;;;8.61;77.29
57904;BME280;43720;47.462;19.030;2024-03-07T13:18:02;100512.34;;;8.60;77.35
57904;BME280;43720;47.462;19.030;2024-03-07T13:21:07;100518.53;;;8.65;78.60
57904;BME280;43720;47.462;19.030;2024-03-07T13:24:14;100514.38;;;8.73;78.68
57904;BME280;43720;47.462;19.030;2024-03-07T13:27:19;100514.09;;;8.61;77.85
57904;BME280;43720;47.462;19.030;2024-03-07T13:30:30;100512.19;;;8.54;78.75
57904;BME280;43720;47.462;19.030;2024-03-07T13:33:32;100512.56;;;8.69;79.19
57904;BME280;43720;47.462;19.030;2024-03-07T13:36:36;100515.78;;;8.59;78.63
57904;BME280;43720;47.462;19.030;2024-03-07T13:39:40;100515.37;;;8.42;79.80
57904;BME280;43720;47.462;19.030;2024-03-07T13:42:45;100521.31;;;8.71;81.22
57904;BME280;43720;47.462;19.030;2024-03-07T13:45:50;100524.16;;;8.82;79.08
57904;BME280;43720;47.462;19.030;2024-03-07T13:48:53;100517.25;;;8.84;78.52
57904;BME280;43720;47.462;19.030;2024-03-07T13:51:55;100519.13;;;8.90;79.93
57904;BME280;43720;47.462;19.030;2024-03-07T13:55:06;100521.19;;;9.03;78.73
57904;BME280;43720;47.462;19.030;2024-03-07T13:58:17;100525.97;;;8.85;79.03
57904;BME280;43720;47.462;19.030;2024-03-07T14:08:55;100516.09;;;8.71;79.54
57904;BME280;43720;47.462;19.030;2024-03-07T14:19:12;100527.72;;;8.86;80.88
57904;BME280;43720;47.462;19.030;2024-03-07T14:25:56;100534.56;;;8.46;82.99
57904;BME280;43720;47.462;19.030;2024-03-07T14:29:15;100537.09;;;8.43;84.70
57904;BME280;43720;47.462;19.030;2024-03-07T14:32:22;100538.25;;;8.54;85.17
57904;BME280;43720;47.462;19.030;2024-03-07T14:35:31;100535.44;;;8.46;85.77
57904;BME280;43720;47.462;19.030;2024-03-07T14:38:52;100546.84;;;8.18;86.27
57904;BME280;43720;47.462;19.030;2024-03-07T14:41:58;100534.56;;;8.14;86.34
57904;BME280;43720;47.462;19.030;2024-03-07T14:45:04;100536.09;;;8.06;87.31
57904;BME280;43720;47.462;19.030;2024-03-07T14:48:12;100534.56;;;8.14;87.50
57904;BME280;43720;47.462;19.030;2024-03-07T14:51:17;100536.44;;;8.20;88.26
57904;BME280;43720;47.462;19.030;2024-03-07T14:54:22;100539.22;;;8.26;89.08
57904;BME280;43720;47.462;19.030;2024-03-07T14:57:25;100541.66;;;8.20;89.43
57904;BME280;43720;47.462;19.030;2024-03-07T15:00:29;100547.50;;;8.11;89.04
57904;BME280;43720;47.462;19.030;2024-03-07T15:03:43;100550.56;;;7.96;89.60
57904;BME280;43720;47.462;19.030;2024-03-07T15:06:47;100550.62;;;7.98;91.25
57904;BME280;43720;47.462;19.030;2024-03-07T15:09:50;100543.06;;;8.07;90.57
57904;BME280;43720;47.462;19.030;2024-03-07T15:12:52;100543.03;;;8.05;91.04
57904;BME280;43720;47.462;19.030;2024-03-07T15:15:55;100547.53;;;7.81;91.91
57904;BME280;43720;47.462;19.030;2024-03-07T15:18:58;100553.34;;;7.71;92.67
57904;BME280;43720;47.462;19.030;2024-03-07T15:22:01;100555.94;;;7.71;94.49
57904;BME280;43720;47.462;19.030;2024-03-07T15:25:05;100557.84;;;7.78;95.44
57904;BME280;43720;47.462;19.030;2024-03-07T15:28:14;100557.16;;;7.83;96.80
57904;BME280;43720;47.462;19.030;2024-03-07T15:31:17;100556.41;;;7.88;97.75
57904;BME280;43720;47.462;19.030;2024-03-07T15:34:21;100560.66;;;7.85;96.32
57904;BME280;43720;47.462;19.030;2024-03-07T15:37:24;100555.47;;;7.85;96.26
57904;BME280;43720;47.462;19.030;2024-03-07T15:40:32;100559.88;;;7.88;97.54
57904;BME280;43720;47.462;19.030;2024-03-07T15:43:34;100558.06;;;7.85;99.36
57904;BME280;43720;47.462;19.030;2024-03-07T15:46:37;100566.09;;;7.93;100.00
57904;BME280;43720;47.462;19.030;2024-03-07T15:49:39;100563.13;;;7.79;100.00
57904;BME280;43720;47.462;19.030;2024-03-07T15:52:44;100568.25;;;7.78;100.00
57904;BME280;43720;47.462;19.030;2024-03-07T15:55:46;100566.47;;;7.75;100.00
57904;BME280;43720;47.462;19.030;2024-03-07T15:58:50;100570.75;;;7.73;100.00
57904;BME280;43720;47.462;19.030;2024-03-07T16:01:52;100569.19;;;7.50;97.58
57904;BME280;43720;47.462;19.030;2024-03-07T16:04:54;100569.41;;;7.57;100.00
57904;BME280;43720;47.462;19.030;2024-03-07T16:08:00;100568.53;;;7.57;99.33
57904;BME280;43720;47.462;19.030;2024-03-07T16:11:03;100564.25;;;7.30;100.00
57904;BME280;43720;47.462;19.030;2024-03-07T16:14:05;100571.41;;;7.38;100.00
